Port Hueneme CBC Base, California
Current Conditions -  °F | °C
As of 10:51 PM on Wednesday 22 Oct 2014 (Local Time) from KOXR Reporting Station
Clear Clear  
Wind Chill: 64°   Ceiling: Unl
Heat Index: 64°   Visibility: 10mi
Dew Point: 54°   Wind: 5mph
Humidity: 70%   Direction: 50°NE
Pressure: 29.95"   Gusts: NA
Location:  34.15°N, 119.19°W
Report Text: KOXR 230551Z AUTO 05004KT 10SM CLR 18/12 A2995 RMK AO2 SLP140 T01780122 10222 20178 53006
Loading
Personal Weather Stations






























Interactive Weather Map
Tropical Storm Tracking
New forecast layout! Learn more

10-Day Weather Forecast

Advertisements
Track Severe Weather on mobile